Alagoinha, Brazil
Current Conditions -  °F | °C
As of 8:00 AM on Thursday 23 Oct 2014 (Local Time) from SBKG Reporting Station
Broken Clouds Broken Clouds  
Wind Chill: 75°   Ceiling: 2200
Heat Index: 75°   Visibility: 6mi
Dew Point: 66°   Wind: 12mph
Humidity: 73%   Direction: 110°ESE
Pressure: 30.06"   Gusts: NA
Location:  6.95°S, 35.54°W
Report Text: SBKG 231100Z 11010KT 9999 BKN022 24/19 Q1018
Loading
Personal Weather Stations






























Interactive Weather Map
Tropical Storm Tracking
New forecast layout! Learn more

10-Day Weather Forecast

Advertisements
Track Severe Weather on mobile